createdAt,value
2022-10-04T00:01:11.167Z,13.45
2022-10-04T00:03:47.395Z,13.00
2022-10-04T00:06:26.234Z,13.12
2022-10-04T00:08:57.703Z,13.79
2022-10-04T00:11:35.095Z,13.04
2022-10-04T00:14:07.996Z,12.97
2022-10-04T00:16:38.054Z,12.87
2022-10-04T00:19:19.815Z,13.18
2022-10-04T00:21:56.343Z,13.61
2022-10-04T00:24:28.107Z,13.26
2022-10-04T00:27:31.694Z,13.25
2022-10-04T00:30:04.039Z,13.06
2022-10-04T00:32:47.037Z,13.34
2022-10-04T00:35:25.710Z,13.53
2022-10-04T00:37:58.605Z,13.52
2022-10-04T00:40:33.884Z,12.93
2022-10-04T00:43:03.292Z,12.64
2022-10-04T00:45:51.648Z,12.94
2022-10-04T00:48:33.357Z,13.23
2022-10-04T00:51:18.951Z,13.28
2022-10-04T00:53:51.998Z,12.66
2022-10-04T00:56:44.573Z,13.40
2022-10-04T00:59:40.450Z,13.18
2022-10-04T01:02:26.503Z,13.50
2022-10-04T01:04:59.664Z,13.34
2022-10-04T01:07:32.955Z,12.66
2022-10-04T01:10:04.665Z,12.54
2022-10-04T01:13:16.181Z,12.51
2022-10-04T01:15:51.039Z,12.49
2022-10-04T01:18:20.468Z,13.00
2022-10-04T01:20:54.830Z,12.44
2022-10-04T01:23:45.833Z,13.29
2022-10-04T01:26:30.554Z,12.43
2022-10-04T01:29:09.312Z,12.63
2022-10-04T01:31:39.486Z,13.24
2022-10-04T01:34:07.301Z,12.29
2022-10-04T01:36:36.229Z,13.12
2022-10-04T01:39:04.196Z,13.13
2022-10-04T01:41:33.825Z,13.32
2022-10-04T01:44:04.199Z,13.14
2022-10-04T01:46:37.164Z,13.12
2022-10-04T01:49:10.488Z,12.79
2022-10-04T01:51:55.244Z,12.52
2022-10-04T01:54:33.018Z,12.52
2022-10-04T01:57:07.382Z,12.51
2022-10-04T02:00:07.994Z,13.17
2022-10-04T02:03:00.797Z,13.04
2022-10-04T02:05:33.539Z,12.46
2022-10-04T02:08:05.658Z,12.68
2022-10-04T02:10:41.025Z,12.89
2022-10-04T02:13:18.699Z,12.77
2022-10-04T02:15:47.641Z,12.24
2022-10-04T02:18:17.237Z,12.65
2022-10-04T02:20:45.477Z,12.89
2022-10-04T02:23:13.633Z,13.24
2022-10-04T02:25:40.374Z,12.92
2022-10-04T02:28:11.160Z,12.13
2022-10-04T02:30:44.677Z,12.85
2022-10-04T02:33:11.605Z,13.44
2022-10-04T02:35:45.105Z,12.86
2022-10-04T02:38:35.754Z,12.88
2022-10-04T02:41:27.046Z,12.91
2022-10-04T02:43:57.940Z,12.88
2022-10-04T02:46:54.039Z,13.21
2022-10-04T02:49:42.078Z,12.81
2022-10-04T02:52:37.124Z,12.73
2022-10-04T02:55:14.688Z,13.15
2022-10-04T02:57:43.267Z,13.43
2022-10-04T03:00:12.512Z,12.51
2022-10-04T03:02:40.220Z,12.37
2022-10-04T03:05:10.713Z,12.95
2022-10-04T03:07:39.320Z,12.37
2022-10-04T03:10:12.536Z,12.63
2022-10-04T03:12:42.363Z,12.77
2022-10-04T03:15:13.201Z,12.69
2022-10-04T03:17:44.319Z,12.38
2022-10-04T03:20:16.320Z,12.50
2022-10-04T03:22:47.155Z,12.37
2022-10-04T03:25:29.353Z,12.30
2022-10-04T03:28:02.105Z,12.79
2022-10-04T03:30:29.989Z,12.54
2022-10-04T03:32:56.698Z,12.67
2022-10-04T03:35:32.520Z,13.12
2022-10-04T03:38:02.209Z,12.94
2022-10-04T03:40:32.304Z,13.13
2022-10-04T03:43:00.614Z,13.39
2022-10-04T03:45:29.034Z,13.27
2022-10-04T03:48:05.013Z,12.87
2022-10-04T03:50:45.132Z,12.64
2022-10-04T03:53:35.440Z,12.68
2022-10-04T03:56:08.790Z,13.11
2022-10-04T03:58:36.314Z,13.06
2022-10-04T04:01:27.227Z,12.74
2022-10-04T04:04:02.335Z,12.99
2022-10-04T04:06:37.782Z,12.88
2022-10-04T04:09:06.545Z,13.18
2022-10-04T04:11:33.823Z,13.06
2022-10-04T04:14:07.977Z,13.40
2022-10-04T04:16:37.005Z,13.28
2022-10-04T04:19:11.602Z,13.32
2022-10-04T04:21:38.415Z,13.19
2022-10-04T04:24:15.287Z,12.58
2022-10-04T04:26:45.981Z,12.75
2022-10-04T04:29:24.949Z,12.98
2022-10-04T04:32:12.185Z,12.97
2022-10-04T04:34:52.988Z,13.29
2022-10-04T04:37:20.545Z,12.78
2022-10-04T04:39:54.734Z,12.64
2022-10-04T04:42:29.620Z,12.71
2022-10-04T04:45:00.931Z,12.54
2022-10-04T04:47:30.502Z,12.57
2022-10-04T04:50:02.259Z,12.91
2022-10-04T04:52:29.657Z,12.70
2022-10-04T04:54:56.698Z,12.74
2022-10-04T04:57:23.804Z,12.69
2022-10-04T04:59:55.731Z,12.45
2022-10-04T05:02:35.167Z,12.72
2022-10-04T05:05:18.495Z,12.63
2022-10-04T05:07:45.234Z,12.35
2022-10-04T05:10:31.654Z,12.37
2022-10-04T05:13:00.503Z,12.77
2022-10-04T05:15:31.908Z,12.58
2022-10-04T05:17:59.532Z,12.53
2022-10-04T05:20:27.251Z,12.95
2022-10-04T05:22:55.193Z,12.68
2022-10-04T05:25:33.618Z,12.53
2022-10-04T05:28:00.538Z,12.68
2022-10-04T05:31:00.981Z,12.48
2022-10-04T05:33:50.023Z,12.76
2022-10-04T05:36:39.917Z,12.80
2022-10-04T05:39:29.491Z,12.42
2022-10-04T05:42:12.467Z,12.77
2022-10-04T05:44:51.911Z,12.54
2022-10-04T05:47:27.773Z,12.97
2022-10-04T05:50:01.070Z,12.54
2022-10-04T05:52:36.410Z,12.73
2022-10-04T05:55:17.804Z,12.91
2022-10-04T05:57:47.199Z,13.09
2022-10-04T06:00:17.744Z,12.89
2022-10-04T06:02:54.543Z,13.20
2022-10-04T06:05:39.938Z,13.41
2022-10-04T06:08:17.071Z,13.45
2022-10-04T06:11:00.443Z,12.92
2022-10-04T06:13:39.164Z,12.96
2022-10-04T06:16:23.579Z,13.39
2022-10-04T06:19:22.445Z,13.47
2022-10-04T06:22:07.014Z,13.38
2022-10-04T06:24:38.692Z,13.82
2022-10-04T06:27:14.970Z,13.12
2022-10-04T06:30:04.654Z,13.75
2022-10-04T06:32:55.732Z,13.60
2022-10-04T06:35:40.628Z,13.23
2022-10-04T06:38:44.553Z,12.90
2022-10-04T06:41:38.859Z,12.94
2022-10-04T06:44:58.282Z,13.80
2022-10-04T06:47:56.015Z,13.57
2022-10-04T06:50:57.616Z,13.61
2022-10-04T06:53:55.929Z,13.64
2022-10-04T06:56:53.423Z,14.18
2022-10-04T06:59:38.011Z,12.93
2022-10-04T07:02:17.929Z,13.66
2022-10-04T07:05:14.301Z,13.45
2022-10-04T07:07:47.524Z,12.94
2022-10-04T07:10:44.975Z,13.24
2022-10-04T07:13:20.538Z,13.07
2022-10-04T07:16:06.110Z,13.19
2022-10-04T07:18:42.624Z,13.18
2022-10-04T07:21:15.649Z,13.19
2022-10-04T07:23:58.558Z,13.21
2022-10-04T07:26:36.236Z,13.39
2022-10-04T07:29:21.287Z,13.71
2022-10-04T07:32:21.961Z,13.64
2022-10-04T07:35:01.453Z,14.01
2022-10-04T07:37:33.622Z,13.34
2022-10-04T07:40:05.320Z,13.61
2022-10-04T07:42:45.624Z,13.86
2022-10-04T07:45:25.831Z,13.59
2022-10-04T07:48:13.587Z,13.87
2022-10-04T07:51:18.541Z,13.46
2022-10-04T07:53:55.617Z,13.08
2022-10-04T07:56:43.828Z,13.66
2022-10-04T07:59:49.533Z,13.59
2022-10-04T08:02:37.247Z,13.02
2022-10-04T08:05:20.013Z,12.79
2022-10-04T08:08:13.707Z,13.25
2022-10-04T08:11:05.348Z,13.90
2022-10-04T08:14:08.632Z,13.99
2022-10-04T08:16:43.968Z,13.93
2022-10-04T08:19:38.768Z,14.30
2022-10-04T08:22:34.814Z,13.58
2022-10-04T08:25:39.777Z,13.28
2022-10-04T08:28:53.086Z,13.35
2022-10-04T08:31:29.504Z,13.86
2022-10-04T08:34:08.228Z,13.71
2022-10-04T08:36:49.715Z,14.07
2022-10-04T08:39:21.967Z,13.68
2022-10-04T08:42:25.760Z,13.88
2022-10-04T08:45:13.643Z,13.73
2022-10-04T08:47:50.323Z,14.70
2022-10-04T08:50:35.298Z,14.38
2022-10-04T08:53:35.462Z,14.86
2022-10-04T08:56:23.860Z,14.53
2022-10-04T08:58:53.342Z,14.36
2022-10-04T09:01:58.749Z,13.97
2022-10-04T09:04:50.316Z,14.31
2022-10-04T09:07:26.001Z,14.57
2022-10-04T09:10:04.798Z,15.09
2022-10-04T09:12:47.212Z,14.93
2022-10-04T09:15:33.661Z,14.90
2022-10-04T09:18:21.647Z,14.66
2022-10-04T09:21:03.571Z,14.20
2022-10-04T09:23:55.313Z,14.50
2022-10-04T09:26:51.030Z,15.22
2022-10-04T09:30:02.254Z,15.72
2022-10-04T09:32:40.647Z,16.46
2022-10-04T09:35:16.468Z,15.69
2022-10-04T09:38:02.720Z,15.84
2022-10-04T09:40:52.383Z,15.40
2022-10-04T09:43:56.208Z,16.02
2022-10-04T09:46:35.070Z,16.18
2022-10-04T09:49:37.978Z,15.90
2022-10-04T09:52:14.249Z,15.12
2022-10-04T09:54:56.985Z,15.44
2022-10-04T09:57:31.330Z,14.41
2022-10-04T10:00:00.943Z,15.28
2022-10-04T10:02:59.902Z,15.34
2022-10-04T10:05:36.469Z,15.47
2022-10-04T10:08:30.021Z,15.36
2022-10-04T10:11:43.085Z,15.19
2022-10-04T10:14:18.924Z,15.92
2022-10-04T10:17:37.989Z,15.77
2022-10-04T10:20:07.966Z,15.67
2022-10-04T10:23:22.096Z,16.00
2022-10-04T10:26:10.037Z,16.03
2022-10-04T10:28:54.443Z,15.23
2022-10-04T10:31:24.178Z,15.01
2022-10-04T10:34:21.118Z,15.06
2022-10-04T10:37:09.942Z,15.73
2022-10-04T10:40:21.058Z,15.64
2022-10-04T10:43:10.059Z,15.24
2022-10-04T10:46:04.965Z,15.46
2022-10-04T10:49:07.064Z,16.47
2022-10-04T10:51:55.977Z,16.01
2022-10-04T10:54:53.195Z,15.78
2022-10-04T10:57:34.159Z,16.07
2022-10-04T11:00:18.849Z,16.10
2022-10-04T11:03:13.468Z,16.30
2022-10-04T11:05:48.231Z,16.50
2022-10-04T11:08:57.056Z,15.96
2022-10-04T11:11:45.209Z,16.03
2022-10-04T11:14:40.929Z,15.50
2022-10-04T11:17:13.438Z,15.59
2022-10-04T11:20:05.300Z,15.27
2022-10-04T11:23:00.627Z,15.65
2022-10-04T11:25:44.619Z,15.01
2022-10-04T11:28:20.935Z,15.36
2022-10-04T11:31:00.472Z,15.96
2022-10-04T11:33:55.819Z,16.16
2022-10-04T11:36:28.147Z,15.15
2022-10-04T11:39:21.883Z,15.35
2022-10-04T11:41:56.270Z,15.60
2022-10-04T11:44:52.537Z,15.67
2022-10-04T11:47:44.841Z,16.19
2022-10-04T11:50:23.764Z,16.44
2022-10-04T11:53:16.813Z,15.97
2022-10-04T11:56:30.294Z,16.12
2022-10-04T11:59:15.424Z,15.96
2022-10-04T12:02:16.483Z,16.00
2022-10-04T12:04:58.180Z,16.20
2022-10-04T12:07:27.407Z,15.62
2022-10-04T12:10:01.069Z,16.45
2022-10-04T12:12:43.939Z,16.19
2022-10-04T12:15:30.372Z,16.56
2022-10-04T12:18:28.565Z,17.18
2022-10-04T12:21:22.057Z,16.98
2022-10-04T12:23:57.497Z,17.21
2022-10-04T12:26:32.956Z,17.14
2022-10-04T12:29:24.558Z,17.20
2022-10-04T12:31:58.706Z,17.22
2022-10-04T12:34:33.875Z,16.46
2022-10-04T12:37:28.303Z,16.48
2022-10-04T12:40:19.483Z,16.30
2022-10-04T12:43:04.157Z,16.33
2022-10-04T12:46:12.029Z,16.52
2022-10-04T12:48:39.003Z,16.58
2022-10-04T12:51:17.937Z,16.30
2022-10-04T12:57:21.513Z,16.48
2022-10-04T13:00:03.999Z,15.96
2022-10-04T13:02:45.694Z,16.13
2022-10-04T13:05:37.059Z,16.60
2022-10-04T13:08:25.712Z,16.22
2022-10-04T13:11:13.542Z,16.11
2022-10-04T13:14:25.891Z,16.03
2022-10-04T13:20:26.083Z,16.66
2022-10-04T13:22:58.308Z,16.04
2022-10-04T13:25:45.758Z,16.75
2022-10-04T13:28:47.307Z,17.40
2022-10-04T13:31:13.901Z,16.87
2022-10-04T13:33:58.114Z,16.66
2022-10-04T13:36:33.818Z,16.34
2022-10-04T13:39:21.416Z,16.10
2022-10-04T13:42:25.138Z,16.33
2022-10-04T13:45:24.319Z,16.84
2022-10-04T13:48:18.155Z,16.47
2022-10-04T13:51:22.843Z,16.66
2022-10-04T13:54:26.670Z,16.30
2022-10-04T13:57:21.793Z,16.85
2022-10-04T14:00:02.945Z,16.81
2022-10-04T14:03:02.772Z,15.69
2022-10-04T14:05:48.444Z,16.17
2022-10-04T14:08:42.228Z,15.94
2022-10-04T14:11:46.458Z,16.09
2022-10-04T14:14:40.293Z,16.00
2022-10-04T14:17:13.066Z,16.08
2022-10-04T14:20:10.190Z,16.20
2022-10-04T14:22:58.668Z,15.71
2022-10-04T14:25:44.040Z,15.88
2022-10-04T14:28:44.738Z,15.63
2022-10-04T14:31:55.299Z,15.40
2022-10-04T14:34:27.968Z,15.45
2022-10-04T14:37:19.266Z,15.50
2022-10-04T14:40:42.630Z,15.46
2022-10-04T14:43:21.479Z,15.49
2022-10-04T14:46:00.227Z,15.47
2022-10-04T14:49:00.234Z,15.14
2022-10-04T14:51:57.266Z,15.34
2022-10-04T14:54:26.927Z,14.99
2022-10-04T14:57:04.186Z,15.02
2022-10-04T14:59:49.228Z,14.83
2022-10-04T15:02:31.708Z,15.00
2022-10-04T15:05:29.919Z,14.79
2022-10-04T15:08:10.083Z,14.87
2022-10-04T15:10:48.159Z,15.04
2022-10-04T15:13:42.450Z,15.06
2022-10-04T15:16:27.426Z,14.69
2022-10-04T15:19:00.204Z,15.00
2022-10-04T15:21:32.588Z,14.77
2022-10-04T15:24:17.312Z,14.51
2022-10-04T15:27:21.384Z,14.66
2022-10-04T15:29:58.023Z,14.90
2022-10-04T15:32:35.809Z,15.10
2022-10-04T15:35:39.852Z,15.06
2022-10-04T15:38:15.835Z,15.02
2022-10-04T15:41:07.270Z,15.54
2022-10-04T15:43:44.693Z,15.76
2022-10-04T15:46:52.120Z,15.68
2022-10-04T15:49:24.980Z,15.83
2022-10-04T15:52:25.678Z,16.06
2022-10-04T15:55:20.777Z,15.81
2022-10-04T15:57:47.353Z,15.72
2022-10-04T16:00:23.364Z,16.02
2022-10-04T16:03:09.283Z,15.86
2022-10-04T16:05:59.977Z,16.15
2022-10-04T16:08:57.496Z,15.92
2022-10-04T16:11:40.909Z,15.85
2022-10-04T16:14:35.393Z,15.95
2022-10-04T16:17:37.200Z,15.72
2022-10-04T16:20:20.056Z,15.43
2022-10-04T16:23:28.121Z,15.65
2022-10-04T16:26:09.238Z,15.93
2022-10-04T16:28:56.248Z,15.70
2022-10-04T16:31:47.817Z,15.98
2022-10-04T16:34:42.919Z,15.97
2022-10-04T16:37:24.679Z,15.47
2022-10-04T16:40:02.264Z,15.60
2022-10-04T16:42:45.067Z,15.91
2022-10-04T16:45:14.178Z,15.76
2022-10-04T16:48:22.681Z,15.58
2022-10-04T16:50:55.314Z,15.66
2022-10-04T16:53:24.620Z,15.71
2022-10-04T16:56:06.058Z,15.72
2022-10-04T16:58:38.577Z,15.75
2022-10-04T17:01:34.040Z,15.44
2022-10-04T17:04:17.428Z,15.47
2022-10-04T17:07:14.036Z,15.59
2022-10-04T17:10:21.692Z,15.86
2022-10-04T17:13:14.503Z,15.84
2022-10-04T17:16:05.616Z,15.67
2022-10-04T17:18:32.196Z,15.98
2022-10-04T17:27:49.170Z,15.61
2022-10-04T17:30:18.325Z,15.63
2022-10-04T17:33:07.649Z,15.83
2022-10-04T17:36:11.133Z,15.58
2022-10-04T17:39:36.558Z,15.65
2022-10-04T17:42:24.299Z,15.19
2022-10-04T17:45:28.145Z,15.19
2022-10-04T17:48:38.908Z,15.39
2022-10-04T17:51:39.118Z,15.40
2022-10-04T17:54:37.410Z,15.41
2022-10-04T17:57:14.467Z,15.66
2022-10-04T17:59:46.158Z,15.32
2022-10-04T18:02:24.913Z,14.92
2022-10-04T18:04:59.756Z,14.57
2022-10-04T18:07:37.977Z,14.71
2022-10-04T18:11:00.557Z,15.20
2022-10-04T18:13:39.750Z,15.35
2022-10-04T18:16:22.522Z,15.31
2022-10-04T18:18:50.912Z,15.28
2022-10-04T18:21:28.863Z,15.58
2022-10-04T18:24:19.018Z,15.38
2022-10-04T18:26:59.807Z,15.39
2022-10-04T18:29:41.478Z,15.35
2022-10-04T18:32:26.245Z,14.62
2022-10-04T18:35:01.908Z,15.19
2022-10-04T18:37:32.278Z,15.45
2022-10-04T18:40:18.443Z,15.48
2022-10-04T18:42:57.916Z,15.50
2022-10-04T18:45:31.104Z,15.65
2022-10-04T18:48:01.791Z,15.65
2022-10-04T18:50:44.329Z,15.75
2022-10-04T18:53:35.355Z,15.68
2022-10-04T18:56:05.621Z,15.74
2022-10-04T18:59:09.082Z,15.72
2022-10-04T19:02:13.086Z,15.44
2022-10-04T19:05:17.622Z,15.33
2022-10-04T19:08:09.868Z,15.04
2022-10-04T19:11:12.368Z,14.09
2022-10-04T19:14:02.654Z,14.30
2022-10-04T19:16:47.648Z,14.74
2022-10-04T19:19:33.138Z,14.90
2022-10-04T19:22:16.675Z,14.92
2022-10-04T19:24:58.595Z,15.01
2022-10-04T19:27:36.508Z,15.04
2022-10-04T19:30:22.792Z,15.26
2022-10-04T19:33:27.507Z,15.27
2022-10-04T19:36:19.977Z,14.82
2022-10-04T19:39:02.797Z,15.01
2022-10-04T19:41:44.831Z,14.62
2022-10-04T19:44:42.064Z,14.66
2022-10-04T19:47:39.242Z,14.26
2022-10-04T19:50:21.346Z,13.81
2022-10-04T19:52:58.677Z,14.02
2022-10-04T19:55:53.932Z,14.45
2022-10-04T19:59:02.364Z,14.38
2022-10-04T20:01:29.796Z,14.61
2022-10-04T20:04:15.694Z,14.71
2022-10-04T20:07:03.798Z,14.16
2022-10-04T20:09:47.999Z,14.46
2022-10-04T20:12:43.280Z,14.14
2022-10-04T20:15:43.972Z,13.57
2022-10-04T20:18:32.390Z,14.10
2022-10-04T20:21:00.106Z,14.50
2022-10-04T20:23:39.165Z,14.39
2022-10-04T20:26:55.532Z,14.57
2022-10-04T20:29:39.046Z,14.35
2022-10-04T20:32:13.265Z,14.37
2022-10-04T20:34:39.978Z,14.41
2022-10-04T20:37:09.120Z,14.35
2022-10-04T20:39:41.731Z,14.39
2022-10-04T20:42:25.382Z,14.36
2022-10-04T20:44:56.215Z,14.48
2022-10-04T20:47:35.087Z,14.44
2022-10-04T20:50:02.619Z,14.51
2022-10-04T20:52:31.986Z,14.47
2022-10-04T20:55:01.748Z,14.38
2022-10-04T20:57:30.628Z,14.46
2022-10-04T20:59:59.088Z,14.39
2022-10-04T21:02:28.680Z,13.86
2022-10-04T21:05:15.964Z,12.72
2022-10-04T21:07:42.720Z,13.11
2022-10-04T21:10:19.072Z,13.74
2022-10-04T21:12:46.547Z,13.91
2022-10-04T21:15:13.217Z,14.01
2022-10-04T21:17:39.863Z,13.96
2022-10-04T21:20:36.657Z,14.17
2022-10-04T21:23:33.890Z,14.27
2022-10-04T21:26:22.669Z,14.44
2022-10-04T21:28:54.084Z,14.54
2022-10-04T21:31:20.781Z,14.41
2022-10-04T21:33:47.447Z,14.46
2022-10-04T21:36:14.255Z,14.06
2022-10-04T21:38:41.016Z,14.56
2022-10-04T21:41:07.701Z,14.50
2022-10-04T21:43:34.368Z,14.27
2022-10-04T21:46:01.537Z,14.23
2022-10-04T21:48:28.686Z,14.13
2022-10-04T21:50:55.622Z,14.22
2022-10-04T21:53:22.360Z,14.34
2022-10-04T21:55:49.053Z,14.50
2022-10-04T21:58:15.977Z,14.57
2022-10-04T22:00:42.718Z,13.89
2022-10-04T22:03:09.451Z,13.71
2022-10-04T22:05:36.104Z,13.70
2022-10-04T22:08:02.774Z,13.98
2022-10-04T22:10:29.502Z,13.64
2022-10-04T22:12:57.141Z,13.45
2022-10-04T22:15:28.326Z,13.58
2022-10-04T22:17:55.737Z,13.68
2022-10-04T22:20:22.803Z,13.56
2022-10-04T22:22:49.448Z,13.76
2022-10-04T22:25:18.423Z,14.15
2022-10-04T22:27:45.828Z,14.17
2022-10-04T22:30:21.778Z,13.80
2022-10-04T22:32:49.187Z,13.95
2022-10-04T22:35:19.873Z,14.18
2022-10-04T22:37:47.868Z,14.22
2022-10-04T22:40:16.169Z,12.98
2022-10-04T22:42:43.475Z,12.99
2022-10-04T22:45:20.636Z,13.15
2022-10-04T22:47:47.682Z,13.44
2022-10-04T22:50:40.321Z,12.84
2022-10-04T22:53:23.338Z,13.13
2022-10-04T22:55:51.745Z,13.16
2022-10-04T22:58:21.062Z,13.06
2022-10-04T23:00:48.232Z,13.32
2022-10-04T23:03:34.440Z,13.53
2022-10-04T23:06:02.520Z,13.80
2022-10-04T23:08:30.157Z,13.86
2022-10-04T23:10:58.752Z,13.59
2022-10-04T23:13:27.142Z,13.72
2022-10-04T23:16:00.261Z,13.55
2022-10-04T23:18:27.241Z,12.73
2022-10-04T23:21:00.040Z,12.84
2022-10-04T23:23:28.360Z,13.08
2022-10-04T23:25:55.323Z,13.02
2022-10-04T23:28:22.007Z,13.36
2022-10-04T23:31:11.885Z,13.53
2022-10-04T23:33:38.530Z,13.57
2022-10-04T23:36:11.640Z,13.37
2022-10-04T23:38:38.255Z,13.24
2022-10-04T23:41:11.429Z,12.84
2022-10-04T23:43:38.531Z,13.21
2022-10-04T23:46:24.420Z,13.22
2022-10-04T23:48:57.178Z,13.36
2022-10-04T23:51:23.833Z,13.64
2022-10-04T23:53:50.569Z,13.85
2022-10-04T23:56:28.556Z,13.79
2022-10-04T23:58:58.741Z,13.32
